Main page
METAR-TAF:

METAR-TAF

Airports :

Palma de Mallorca Airport

Palma de Mallorca, Spain

latitude: 39-33N, longitude: 002-44E, elevation: 4 m

Current weather observation

The report was made 31 minutes ago, at 17:30 UTC
Wind 7 kt from the West
Temperature 13°C
Humidity 82%
Pressure 1021 hPa
Visibility 10 km or more
Few clouds at a height of 2200 ft

METAR: LEPA 271730Z 26007KT 9999 FEW022 13/10 Q1021 NOSIG

Time: 19:01 (18:01 UTC)

Forecast

The report was made 1 hour and 1 minutes ago, at 17:00 UTC
Forecast valid from 27 at 18 UTC to 28 at 18 UTC
Wind 10 kt from the West/Southwest
Visibility 10 km or more
Few clouds at a height of 2000 ft
Temporary
from 28 at 03 UTC to 28 at 09 UTC
Wind 4 kt from variable directions
Probability 30% :
Temporary
from 28 at 02 UTC to 28 at 08 UTC
Visibility: 3000 m
patches of fog

TAF: LEPA 271700Z 2718/2818 24010KT 9999 FEW020 TX17/2812Z TN09/2806Z TEMPO 2803/2809 VRB04KT PROB30 TEMPO 2802/2808 3000 BCFG

Weather observations and forecasts of more than 4000 airports (METAR and TAF reports).

The available stations are represented by yellow and red dots on the map.

Hover mouse over dot to see the name of the station.

Then click to see weather observations and forecasts.

To change the map : click on the green buttons with a black cross to zoom in, on the green button with a dash to zoom out, or on the green arrows for adjacent maps.


METAR-TAF: